sensor_id;sensor_type;location;lat;lon;timestamp;P1;durP1;ratioP1;P2;durP2;ratioP2
71423;SDS011;59240;51.370;-0.486;2022-09-12T00:01:16;18.00;;;12.93;;
71423;SDS011;59240;51.370;-0.486;2022-09-12T00:03:50;12.65;;;10.90;;
71423;SDS011;59240;51.370;-0.486;2022-09-12T00:06:20;16.60;;;11.70;;
71423;SDS011;59240;51.370;-0.486;2022-09-12T00:08:50;20.15;;;12.65;;
71423;SDS011;59240;51.370;-0.486;2022-09-12T00:11:19;14.63;;;11.27;;
71423;SDS011;59240;51.370;-0.486;2022-09-12T00:13:46;17.23;;;11.63;;
71423;SDS011;59240;51.370;-0.486;2022-09-12T00:16:17;15.80;;;12.48;;
71423;SDS011;59240;51.370;-0.486;2022-09-12T00:18:46;15.63;;;12.50;;
71423;SDS011;59240;51.370;-0.486;2022-09-12T00:21:13;17.55;;;12.98;;
71423;SDS011;59240;51.370;-0.486;2022-09-12T00:23:40;19.90;;;14.63;;
71423;SDS011;59240;51.370;-0.486;2022-09-12T00:26:07;18.52;;;15.30;;
71423;SDS011;59240;51.370;-0.486;2022-09-12T00:28:35;17.35;;;14.57;;
71423;SDS011;59240;51.370;-0.486;2022-09-12T00:31:03;22.35;;;15.43;;
71423;SDS011;59240;51.370;-0.486;2022-09-12T00:33:35;18.73;;;13.25;;
71423;SDS011;59240;51.370;-0.486;2022-09-12T00:36:06;19.77;;;13.75;;
71423;SDS011;59240;51.370;-0.486;2022-09-12T00:38:35;17.30;;;13.32;;
71423;SDS011;59240;51.370;-0.486;2022-09-12T00:41:04;18.88;;;14.73;;
71423;SDS011;59240;51.370;-0.486;2022-09-12T00:43:33;20.13;;;14.40;;
71423;SDS011;59240;51.370;-0.486;2022-09-12T00:46:24;16.35;;;14.02;;
71423;SDS011;59240;51.370;-0.486;2022-09-12T00:48:48;18.23;;;14.68;;
71423;SDS011;59240;51.370;-0.486;2022-09-12T00:51:20;18.45;;;14.23;;
71423;SDS011;59240;51.370;-0.486;2022-09-12T00:53:48;17.10;;;14.07;;
71423;SDS011;59240;51.370;-0.486;2022-09-12T00:56:17;22.05;;;13.50;;
71423;SDS011;59240;51.370;-0.486;2022-09-12T00:58:50;17.38;;;13.48;;
71423;SDS011;59240;51.370;-0.486;2022-09-12T01:01:33;19.20;;;14.98;;
71423;SDS011;59240;51.370;-0.486;2022-09-12T01:04:01;17.27;;;15.30;;
71423;SDS011;59240;51.370;-0.486;2022-09-12T01:06:29;17.67;;;15.80;;
71423;SDS011;59240;51.370;-0.486;2022-09-12T01:09:01;19.55;;;14.63;;
71423;SDS011;59240;51.370;-0.486;2022-09-12T01:11:33;17.10;;;14.35;;
71423;SDS011;59240;51.370;-0.486;2022-09-12T01:14:02;19.60;;;14.77;;
71423;SDS011;59240;51.370;-0.486;2022-09-12T01:16:28;19.63;;;13.95;;
71423;SDS011;59240;51.370;-0.486;2022-09-12T01:24:51;19.55;;;14.60;;
71423;SDS011;59240;51.370;-0.486;2022-09-12T01:35:19;14.53;;;12.80;;
71423;SDS011;59240;51.370;-0.486;2022-09-12T01:40:22;16.27;;;13.68;;
71423;SDS011;59240;51.370;-0.486;2022-09-12T01:43:11;16.23;;;12.75;;
71423;SDS011;59240;51.370;-0.486;2022-09-12T01:48:25;14.43;;;12.07;;
71423;SDS011;59240;51.370;-0.486;2022-09-12T01:51:03;18.55;;;13.13;;
71423;SDS011;59240;51.370;-0.486;2022-09-12T01:53:33;18.42;;;13.48;;
71423;SDS011;59240;51.370;-0.486;2022-09-12T01:56:37;19.10;;;13.50;;
71423;SDS011;59240;51.370;-0.486;2022-09-12T01:59:15;16.30;;;13.30;;
71423;SDS011;59240;51.370;-0.486;2022-09-12T02:01:51;20.20;;;12.60;;
71423;SDS011;59240;51.370;-0.486;2022-09-12T02:04:24;15.93;;;12.20;;
71423;SDS011;59240;51.370;-0.486;2022-09-12T02:09:38;20.90;;;14.15;;
71423;SDS011;59240;51.370;-0.486;2022-09-12T02:12:12;22.58;;;13.80;;
71423;SDS011;59240;51.370;-0.486;2022-09-12T02:14:48;16.83;;;14.70;;
71423;SDS011;59240;51.370;-0.486;2022-09-12T02:17:19;19.45;;;14.45;;
71423;SDS011;59240;51.370;-0.486;2022-09-12T02:19:50;18.27;;;13.70;;
71423;SDS011;59240;51.370;-0.486;2022-09-12T02:22:22;16.50;;;14.02;;
71423;SDS011;59240;51.370;-0.486;2022-09-12T02:24:53;17.77;;;13.93;;
71423;SDS011;59240;51.370;-0.486;2022-09-12T02:27:23;20.17;;;14.60;;
71423;SDS011;59240;51.370;-0.486;2022-09-12T02:29:55;19.00;;;14.73;;
71423;SDS011;59240;51.370;-0.486;2022-09-12T02:35:06;17.80;;;15.32;;
71423;SDS011;59240;51.370;-0.486;2022-09-12T02:40:29;22.83;;;15.93;;
71423;SDS011;59240;51.370;-0.486;2022-09-12T02:42:57;21.08;;;17.45;;
71423;SDS011;59240;51.370;-0.486;2022-09-12T02:45:24;22.35;;;15.63;;
71423;SDS011;59240;51.370;-0.486;2022-09-12T02:47:52;21.70;;;15.98;;
71423;SDS011;59240;51.370;-0.486;2022-09-12T02:50:24;24.02;;;15.43;;
71423;SDS011;59240;51.370;-0.486;2022-09-12T02:52:51;16.05;;;13.27;;
71423;SDS011;59240;51.370;-0.486;2022-09-12T02:55:19;21.23;;;15.45;;
71423;SDS011;59240;51.370;-0.486;2022-09-12T02:57:46;17.73;;;14.60;;
71423;SDS011;59240;51.370;-0.486;2022-09-12T03:00:13;19.88;;;15.50;;
71423;SDS011;59240;51.370;-0.486;2022-09-12T03:02:56;21.48;;;16.40;;
71423;SDS011;59240;51.370;-0.486;2022-09-12T03:05:44;19.88;;;15.10;;
71423;SDS011;59240;51.370;-0.486;2022-09-12T03:08:24;17.15;;;14.20;;
71423;SDS011;59240;51.370;-0.486;2022-09-12T03:13:56;19.77;;;15.40;;
71423;SDS011;59240;51.370;-0.486;2022-09-12T03:16:43;21.58;;;15.63;;
71423;SDS011;59240;51.370;-0.486;2022-09-12T03:19:23;18.25;;;15.10;;
71423;SDS011;59240;51.370;-0.486;2022-09-12T03:21:57;17.65;;;14.02;;
71423;SDS011;59240;51.370;-0.486;2022-09-12T03:24:35;18.58;;;15.15;;
71423;SDS011;59240;51.370;-0.486;2022-09-12T03:27:11;19.55;;;14.85;;
71423;SDS011;59240;51.370;-0.486;2022-09-12T03:29:42;15.93;;;14.02;;
71423;SDS011;59240;51.370;-0.486;2022-09-12T03:32:12;19.15;;;15.77;;
71423;SDS011;59240;51.370;-0.486;2022-09-12T03:34:39;20.23;;;16.13;;
71423;SDS011;59240;51.370;-0.486;2022-09-12T03:37:06;23.00;;;15.23;;
71423;SDS011;59240;51.370;-0.486;2022-09-12T03:39:32;18.05;;;15.90;;
71423;SDS011;59240;51.370;-0.486;2022-09-12T03:41:59;19.30;;;15.20;;
71423;SDS011;59240;51.370;-0.486;2022-09-12T03:44:26;21.48;;;17.27;;
71423;SDS011;59240;51.370;-0.486;2022-09-12T03:46:52;18.73;;;15.70;;
71423;SDS011;59240;51.370;-0.486;2022-09-12T03:49:19;26.60;;;15.70;;
71423;SDS011;59240;51.370;-0.486;2022-09-12T03:51:45;22.83;;;17.00;;
71423;SDS011;59240;51.370;-0.486;2022-09-12T03:54:12;18.95;;;14.20;;
71423;SDS011;59240;51.370;-0.486;2022-09-12T03:56:38;19.75;;;14.20;;
71423;SDS011;59240;51.370;-0.486;2022-09-12T03:59:06;20.00;;;15.75;;
71423;SDS011;59240;51.370;-0.486;2022-09-12T04:01:33;16.98;;;14.50;;
71423;SDS011;59240;51.370;-0.486;2022-09-12T04:04:00;16.17;;;14.00;;
71423;SDS011;59240;51.370;-0.486;2022-09-12T04:06:26;16.17;;;14.32;;
71423;SDS011;59240;51.370;-0.486;2022-09-12T04:08:53;17.65;;;14.35;;
71423;SDS011;59240;51.370;-0.486;2022-09-12T04:11:20;22.45;;;16.10;;
71423;SDS011;59240;51.370;-0.486;2022-09-12T04:13:47;22.42;;;15.40;;
71423;SDS011;59240;51.370;-0.486;2022-09-12T04:16:15;19.05;;;16.55;;
71423;SDS011;59240;51.370;-0.486;2022-09-12T04:18:43;21.65;;;15.70;;
71423;SDS011;59240;51.370;-0.486;2022-09-12T04:21:11;22.63;;;16.05;;
71423;SDS011;59240;51.370;-0.486;2022-09-12T04:23:40;26.23;;;17.17;;
71423;SDS011;59240;51.370;-0.486;2022-09-12T04:26:06;19.98;;;16.63;;
71423;SDS011;59240;51.370;-0.486;2022-09-12T04:28:34;21.98;;;14.57;;
71423;SDS011;59240;51.370;-0.486;2022-09-12T04:31:12;20.50;;;15.68;;
71423;SDS011;59240;51.370;-0.486;2022-09-12T04:33:43;18.92;;;14.73;;
71423;SDS011;59240;51.370;-0.486;2022-09-12T04:36:11;19.48;;;16.65;;
71423;SDS011;59240;51.370;-0.486;2022-09-12T04:38:42;23.17;;;16.77;;
71423;SDS011;59240;51.370;-0.486;2022-09-12T04:41:13;25.70;;;17.92;;
71423;SDS011;59240;51.370;-0.486;2022-09-12T04:43:42;20.98;;;15.85;;
71423;SDS011;59240;51.370;-0.486;2022-09-12T04:46:12;20.80;;;16.60;;
71423;SDS011;59240;51.370;-0.486;2022-09-12T04:48:41;23.02;;;15.95;;
71423;SDS011;59240;51.370;-0.486;2022-09-12T04:51:09;25.73;;;18.33;;
71423;SDS011;59240;51.370;-0.486;2022-09-12T04:53:37;23.92;;;17.02;;
71423;SDS011;59240;51.370;-0.486;2022-09-12T04:56:05;30.42;;;17.20;;
71423;SDS011;59240;51.370;-0.486;2022-09-12T04:58:33;24.15;;;17.77;;
71423;SDS011;59240;51.370;-0.486;2022-09-12T05:01:07;19.85;;;16.58;;
71423;SDS011;59240;51.370;-0.486;2022-09-12T05:03:34;23.42;;;16.10;;
71423;SDS011;59240;51.370;-0.486;2022-09-12T05:06:04;19.30;;;14.63;;
71423;SDS011;59240;51.370;-0.486;2022-09-12T05:08:33;18.90;;;16.23;;
71423;SDS011;59240;51.370;-0.486;2022-09-12T05:11:04;17.00;;;15.02;;
71423;SDS011;59240;51.370;-0.486;2022-09-12T05:13:32;16.27;;;14.07;;
71423;SDS011;59240;51.370;-0.486;2022-09-12T05:16:00;18.70;;;15.57;;
71423;SDS011;59240;51.370;-0.486;2022-09-12T05:18:29;17.25;;;13.77;;
71423;SDS011;59240;51.370;-0.486;2022-09-12T05:20:57;17.80;;;14.07;;
71423;SDS011;59240;51.370;-0.486;2022-09-12T05:23:26;19.90;;;15.05;;
71423;SDS011;59240;51.370;-0.486;2022-09-12T05:25:53;17.38;;;14.05;;
71423;SDS011;59240;51.370;-0.486;2022-09-12T05:28:23;19.63;;;14.93;;
71423;SDS011;59240;51.370;-0.486;2022-09-12T05:31:06;17.08;;;13.73;;
71423;SDS011;59240;51.370;-0.486;2022-09-12T05:33:33;16.35;;;13.30;;
71423;SDS011;59240;51.370;-0.486;2022-09-12T05:36:02;16.10;;;12.77;;
71423;SDS011;59240;51.370;-0.486;2022-09-12T05:38:30;24.83;;;14.65;;
71423;SDS011;59240;51.370;-0.486;2022-09-12T05:41:18;17.15;;;13.25;;
71423;SDS011;59240;51.370;-0.486;2022-09-12T05:43:55;16.10;;;12.77;;
71423;SDS011;59240;51.370;-0.486;2022-09-12T05:46:24;17.20;;;14.27;;
71423;SDS011;59240;51.370;-0.486;2022-09-12T05:48:55;15.95;;;13.25;;
71423;SDS011;59240;51.370;-0.486;2022-09-12T05:51:24;18.52;;;14.75;;
71423;SDS011;59240;51.370;-0.486;2022-09-12T05:53:55;14.05;;;11.93;;
71423;SDS011;59240;51.370;-0.486;2022-09-12T05:56:26;17.38;;;13.90;;
71423;SDS011;59240;51.370;-0.486;2022-09-12T05:58:54;15.20;;;12.68;;
71423;SDS011;59240;51.370;-0.486;2022-09-12T06:01:26;19.55;;;13.18;;
71423;SDS011;59240;51.370;-0.486;2022-09-12T06:03:55;22.13;;;14.93;;
71423;SDS011;59240;51.370;-0.486;2022-09-12T06:06:26;14.95;;;13.10;;
71423;SDS011;59240;51.370;-0.486;2022-09-12T06:08:57;20.25;;;12.95;;
71423;SDS011;59240;51.370;-0.486;2022-09-12T06:11:26;14.50;;;12.30;;
71423;SDS011;59240;51.370;-0.486;2022-09-12T06:13:54;16.33;;;13.27;;
71423;SDS011;59240;51.370;-0.486;2022-09-12T06:16:23;12.98;;;11.63;;
71423;SDS011;59240;51.370;-0.486;2022-09-12T06:18:52;14.02;;;10.68;;
71423;SDS011;59240;51.370;-0.486;2022-09-12T06:21:23;16.98;;;11.93;;
71423;SDS011;59240;51.370;-0.486;2022-09-12T06:23:54;18.80;;;12.35;;
71423;SDS011;59240;51.370;-0.486;2022-09-12T06:26:22;14.57;;;11.18;;
71423;SDS011;59240;51.370;-0.486;2022-09-12T06:28:51;17.23;;;11.80;;
71423;SDS011;59240;51.370;-0.486;2022-09-12T06:31:20;17.48;;;11.93;;
71423;SDS011;59240;51.370;-0.486;2022-09-12T06:33:52;17.25;;;11.82;;
71423;SDS011;59240;51.370;-0.486;2022-09-12T06:36:24;18.15;;;11.38;;
71423;SDS011;59240;51.370;-0.486;2022-09-12T06:38:56;14.00;;;10.40;;
71423;SDS011;59240;51.370;-0.486;2022-09-12T06:41:26;18.20;;;12.50;;
71423;SDS011;59240;51.370;-0.486;2022-09-12T06:43:54;18.13;;;11.93;;
71423;SDS011;59240;51.370;-0.486;2022-09-12T06:46:20;15.48;;;11.85;;
71423;SDS011;59240;51.370;-0.486;2022-09-12T06:48:47;18.13;;;11.98;;
71423;SDS011;59240;51.370;-0.486;2022-09-12T06:51:15;16.75;;;11.45;;
71423;SDS011;59240;51.370;-0.486;2022-09-12T06:53:43;13.32;;;10.85;;
71423;SDS011;59240;51.370;-0.486;2022-09-12T06:56:12;14.45;;;11.45;;
71423;SDS011;59240;51.370;-0.486;2022-09-12T06:58:40;19.33;;;12.45;;
71423;SDS011;59240;51.370;-0.486;2022-09-12T07:01:09;13.73;;;11.63;;
71423;SDS011;59240;51.370;-0.486;2022-09-12T07:03:36;13.65;;;10.35;;
71423;SDS011;59240;51.370;-0.486;2022-09-12T07:06:05;14.90;;;11.18;;
71423;SDS011;59240;51.370;-0.486;2022-09-12T07:08:33;13.25;;;10.52;;
71423;SDS011;59240;51.370;-0.486;2022-09-12T07:11:07;15.27;;;11.32;;
71423;SDS011;59240;51.370;-0.486;2022-09-12T07:13:43;18.83;;;10.85;;
71423;SDS011;59240;51.370;-0.486;2022-09-12T07:16:10;16.65;;;10.35;;
71423;SDS011;59240;51.370;-0.486;2022-09-12T07:18:48;12.52;;;11.10;;
71423;SDS011;59240;51.370;-0.486;2022-09-12T07:21:19;17.48;;;10.60;;
71423;SDS011;59240;51.370;-0.486;2022-09-12T07:23:46;14.00;;;10.15;;
71423;SDS011;59240;51.370;-0.486;2022-09-12T07:26:14;13.13;;;10.13;;
71423;SDS011;59240;51.370;-0.486;2022-09-12T07:28:41;12.57;;;9.35;;
71423;SDS011;59240;51.370;-0.486;2022-09-12T07:31:09;19.77;;;10.57;;
71423;SDS011;59240;51.370;-0.486;2022-09-12T07:33:38;17.70;;;9.80;;
71423;SDS011;59240;51.370;-0.486;2022-09-12T07:36:07;13.70;;;8.93;;
71423;SDS011;59240;51.370;-0.486;2022-09-12T07:38:37;12.88;;;9.35;;
71423;SDS011;59240;51.370;-0.486;2022-09-12T07:43:37;13.90;;;8.82;;
71423;SDS011;59240;51.370;-0.486;2022-09-12T07:46:22;12.98;;;8.70;;
71423;SDS011;59240;51.370;-0.486;2022-09-12T07:49:10;9.80;;;8.45;;
71423;SDS011;59240;51.370;-0.486;2022-09-12T07:51:57;13.60;;;7.97;;
71423;SDS011;59240;51.370;-0.486;2022-09-12T07:54:24;15.15;;;6.88;;
71423;SDS011;59240;51.370;-0.486;2022-09-12T07:56:50;13.55;;;6.75;;
71423;SDS011;59240;51.370;-0.486;2022-09-12T07:59:17;10.63;;;5.65;;
71423;SDS011;59240;51.370;-0.486;2022-09-12T08:02:03;12.30;;;5.80;;
71423;SDS011;59240;51.370;-0.486;2022-09-12T08:04:30;10.77;;;6.35;;
71423;SDS011;59240;51.370;-0.486;2022-09-12T08:06:56;8.82;;;7.00;;
71423;SDS011;59240;51.370;-0.486;2022-09-12T08:09:23;14.65;;;7.38;;
71423;SDS011;59240;51.370;-0.486;2022-09-12T08:11:49;12.23;;;7.18;;
71423;SDS011;59240;51.370;-0.486;2022-09-12T08:14:16;11.43;;;7.78;;
71423;SDS011;59240;51.370;-0.486;2022-09-12T08:16:42;17.77;;;7.60;;
71423;SDS011;59240;51.370;-0.486;2022-09-12T08:19:09;11.48;;;6.97;;
71423;SDS011;59240;51.370;-0.486;2022-09-12T08:21:37;11.38;;;6.65;;
71423;SDS011;59240;51.370;-0.486;2022-09-12T08:24:04;7.72;;;6.10;;
71423;SDS011;59240;51.370;-0.486;2022-09-12T08:26:32;12.05;;;6.50;;
71423;SDS011;59240;51.370;-0.486;2022-09-12T08:28:59;9.65;;;5.63;;
71423;SDS011;59240;51.370;-0.486;2022-09-12T08:31:27;9.10;;;4.70;;
71423;SDS011;59240;51.370;-0.486;2022-09-12T08:33:54;9.70;;;4.47;;
71423;SDS011;59240;51.370;-0.486;2022-09-12T08:36:22;7.43;;;3.80;;
71423;SDS011;59240;51.370;-0.486;2022-09-12T08:38:54;8.70;;;4.00;;
71423;SDS011;59240;51.370;-0.486;2022-09-12T08:41:28;12.25;;;3.85;;
71423;SDS011;59240;51.370;-0.486;2022-09-12T08:55:24;6.40;;;2.42;;
71423;SDS011;59240;51.370;-0.486;2022-09-12T08:58:26;5.53;;;1.95;;
71423;SDS011;59240;51.370;-0.486;2022-09-12T09:12:06;8.05;;;1.77;;
71423;SDS011;59240;51.370;-0.486;2022-09-12T09:17:18;5.18;;;1.73;;
71423;SDS011;59240;51.370;-0.486;2022-09-12T09:20:18;4.85;;;1.73;;
71423;SDS011;59240;51.370;-0.486;2022-09-12T09:23:14;7.63;;;1.80;;
71423;SDS011;59240;51.370;-0.486;2022-09-12T09:28:49;4.45;;;1.63;;
71423;SDS011;59240;51.370;-0.486;2022-09-12T09:31:21;4.78;;;1.67;;
71423;SDS011;59240;51.370;-0.486;2022-09-12T09:33:50;3.80;;;1.55;;
71423;SDS011;59240;51.370;-0.486;2022-09-12T09:36:21;5.97;;;1.50;;
71423;SDS011;59240;51.370;-0.486;2022-09-12T09:38:57;2.92;;;1.60;;
71423;SDS011;59240;51.370;-0.486;2022-09-12T09:43:57;3.75;;;1.45;;
71423;SDS011;59240;51.370;-0.486;2022-09-12T09:46:25;2.70;;;1.30;;
71423;SDS011;59240;51.370;-0.486;2022-09-12T09:48:53;3.28;;;1.85;;
71423;SDS011;59240;51.370;-0.486;2022-09-12T09:51:24;7.47;;;2.00;;
71423;SDS011;59240;51.370;-0.486;2022-09-12T09:53:54;5.00;;;1.77;;
71423;SDS011;59240;51.370;-0.486;2022-09-12T09:56:28;6.70;;;1.52;;
71423;SDS011;59240;51.370;-0.486;2022-09-12T10:04:33;5.60;;;1.60;;
71423;SDS011;59240;51.370;-0.486;2022-09-12T10:07:11;4.28;;;1.65;;
71423;SDS011;59240;51.370;-0.486;2022-09-12T10:09:44;6.00;;;1.77;;
71423;SDS011;59240;51.370;-0.486;2022-09-12T10:12:29;4.90;;;1.83;;
71423;SDS011;59240;51.370;-0.486;2022-09-12T10:15:00;5.95;;;1.70;;
71423;SDS011;59240;51.370;-0.486;2022-09-12T10:17:50;3.28;;;1.60;;
71423;SDS011;59240;51.370;-0.486;2022-09-12T10:20:33;3.75;;;1.70;;
71423;SDS011;59240;51.370;-0.486;2022-09-12T10:25:47;3.60;;;1.58;;
71423;SDS011;59240;51.370;-0.486;2022-09-12T10:28:23;2.95;;;1.65;;
71423;SDS011;59240;51.370;-0.486;2022-09-12T10:30:57;3.63;;;1.60;;
71423;SDS011;59240;51.370;-0.486;2022-09-12T10:33:24;5.57;;;1.67;;
71423;SDS011;59240;51.370;-0.486;2022-09-12T10:35:51;7.20;;;1.50;;
71423;SDS011;59240;51.370;-0.486;2022-09-12T10:40:59;5.07;;;1.60;;
71423;SDS011;59240;51.370;-0.486;2022-09-12T10:48:42;3.38;;;1.50;;
71423;SDS011;59240;51.370;-0.486;2022-09-12T10:53:54;5.53;;;1.83;;
71423;SDS011;59240;51.370;-0.486;2022-09-12T10:56:24;4.72;;;1.67;;
71423;SDS011;59240;51.370;-0.486;2022-09-12T11:35:05;5.00;;;1.50;;
71423;SDS011;59240;51.370;-0.486;2022-09-12T11:40:41;5.18;;;1.30;;
71423;SDS011;59240;51.370;-0.486;2022-09-12T11:43:35;3.10;;;1.17;;
71423;SDS011;59240;51.370;-0.486;2022-09-12T11:46:19;4.53;;;1.20;;
71423;SDS011;59240;51.370;-0.486;2022-09-12T11:48:59;3.67;;;1.20;;
71423;SDS011;59240;51.370;-0.486;2022-09-12T11:57:03;8.38;;;1.40;;
71423;SDS011;59240;51.370;-0.486;2022-09-12T11:59:58;3.95;;;1.40;;
71423;SDS011;59240;51.370;-0.486;2022-09-12T12:02:28;6.07;;;1.35;;
71423;SDS011;59240;51.370;-0.486;2022-09-12T12:05:18;4.90;;;1.33;;
71423;SDS011;59240;51.370;-0.486;2022-09-12T12:07:54;1.85;;;1.00;;
71423;SDS011;59240;51.370;-0.486;2022-09-12T12:10:33;5.75;;;1.52;;
71423;SDS011;59240;51.370;-0.486;2022-09-12T12:13:04;2.88;;;1.30;;
71423;SDS011;59240;51.370;-0.486;2022-09-12T12:15:44;3.20;;;1.20;;
71423;SDS011;59240;51.370;-0.486;2022-09-12T12:18:17;7.13;;;1.52;;
71423;SDS011;59240;51.370;-0.486;2022-09-12T12:20:48;3.05;;;1.40;;
71423;SDS011;59240;51.370;-0.486;2022-09-12T12:23:29;3.08;;;1.27;;
71423;SDS011;59240;51.370;-0.486;2022-09-12T12:26:01;5.85;;;1.60;;
71423;SDS011;59240;51.370;-0.486;2022-09-12T12:31:09;2.10;;;1.30;;
71423;SDS011;59240;51.370;-0.486;2022-09-12T12:36:09;7.43;;;1.50;;
71423;SDS011;59240;51.370;-0.486;2022-09-12T12:38:54;3.17;;;1.45;;
71423;SDS011;59240;51.370;-0.486;2022-09-12T12:43:48;4.30;;;1.48;;
71423;SDS011;59240;51.370;-0.486;2022-09-12T12:46:17;9.05;;;1.45;;
71423;SDS011;59240;51.370;-0.486;2022-09-12T12:51:28;4.30;;;1.48;;
71423;SDS011;59240;51.370;-0.486;2022-09-12T12:53:56;4.28;;;1.50;;
71423;SDS011;59240;51.370;-0.486;2022-09-12T12:56:34;3.25;;;1.50;;
71423;SDS011;59240;51.370;-0.486;2022-09-12T12:59:18;4.63;;;1.40;;
71423;SDS011;59240;51.370;-0.486;2022-09-12T13:01:49;3.42;;;1.38;;
71423;SDS011;59240;51.370;-0.486;2022-09-12T13:04:22;3.50;;;1.30;;
71423;SDS011;59240;51.370;-0.486;2022-09-12T13:06:55;4.55;;;1.63;;
71423;SDS011;59240;51.370;-0.486;2022-09-12T13:17:03;3.25;;;1.23;;
71423;SDS011;59240;51.370;-0.486;2022-09-12T13:19:32;2.63;;;1.33;;
71423;SDS011;59240;51.370;-0.486;2022-09-12T13:22:03;3.40;;;1.55;;
71423;SDS011;59240;51.370;-0.486;2022-09-12T13:24:31;3.47;;;1.40;;
71423;SDS011;59240;51.370;-0.486;2022-09-12T13:26:59;1.70;;;1.35;;
71423;SDS011;59240;51.370;-0.486;2022-09-12T13:29:26;2.85;;;1.20;;
71423;SDS011;59240;51.370;-0.486;2022-09-12T13:34:25;4.63;;;1.80;;
71423;SDS011;59240;51.370;-0.486;2022-09-12T13:39:47;2.83;;;1.10;;
71423;SDS011;59240;51.370;-0.486;2022-09-12T13:45:23;3.70;;;1.40;;
71423;SDS011;59240;51.370;-0.486;2022-09-12T13:47:58;4.60;;;1.63;;
71423;SDS011;59240;51.370;-0.486;2022-09-12T13:50:31;4.90;;;1.60;;
71423;SDS011;59240;51.370;-0.486;2022-09-12T13:53:05;6.22;;;1.67;;
71423;SDS011;59240;51.370;-0.486;2022-09-12T13:55:38;4.72;;;1.55;;
71423;SDS011;59240;51.370;-0.486;2022-09-12T13:58:23;3.72;;;1.55;;
71423;SDS011;59240;51.370;-0.486;2022-09-12T14:01:09;5.55;;;1.60;;
71423;SDS011;59240;51.370;-0.486;2022-09-12T14:03:46;3.58;;;1.58;;
71423;SDS011;59240;51.370;-0.486;2022-09-12T14:06:50;6.20;;;1.48;;
71423;SDS011;59240;51.370;-0.486;2022-09-12T14:09:21;2.33;;;1.30;;
71423;SDS011;59240;51.370;-0.486;2022-09-12T14:11:51;4.88;;;1.55;;
71423;SDS011;59240;51.370;-0.486;2022-09-12T14:14:19;4.50;;;1.30;;
71423;SDS011;59240;51.370;-0.486;2022-09-12T14:16:54;3.63;;;1.20;;
71423;SDS011;59240;51.370;-0.486;2022-09-12T14:19:21;3.05;;;1.30;;
71423;SDS011;59240;51.370;-0.486;2022-09-12T14:21:51;3.58;;;1.52;;
71423;SDS011;59240;51.370;-0.486;2022-09-12T14:24:19;2.67;;;1.40;;
71423;SDS011;59240;51.370;-0.486;2022-09-12T14:26:52;3.20;;;1.30;;
71423;SDS011;59240;51.370;-0.486;2022-09-12T14:29:21;5.30;;;1.27;;
71423;SDS011;59240;51.370;-0.486;2022-09-12T14:32:00;3.67;;;1.23;;
71423;SDS011;59240;51.370;-0.486;2022-09-12T14:34:28;6.13;;;1.50;;
71423;SDS011;59240;51.370;-0.486;2022-09-12T14:36:55;3.13;;;1.25;;
71423;SDS011;59240;51.370;-0.486;2022-09-12T14:42:04;4.03;;;1.70;;
71423;SDS011;59240;51.370;-0.486;2022-09-12T14:44:33;3.55;;;1.40;;
71423;SDS011;59240;51.370;-0.486;2022-09-12T14:47:14;3.25;;;1.30;;
71423;SDS011;59240;51.370;-0.486;2022-09-12T14:49:46;2.65;;;1.42;;
71423;SDS011;59240;51.370;-0.486;2022-09-12T14:52:32;2.40;;;1.15;;
71423;SDS011;59240;51.370;-0.486;2022-09-12T14:55:00;3.33;;;1.25;;
71423;SDS011;59240;51.370;-0.486;2022-09-12T15:00:12;3.00;;;1.30;;
71423;SDS011;59240;51.370;-0.486;2022-09-12T15:02:46;3.97;;;1.40;;
71423;SDS011;59240;51.370;-0.486;2022-09-12T15:05:16;4.07;;;1.42;;
71423;SDS011;59240;51.370;-0.486;2022-09-12T15:10:24;6.45;;;1.85;;
71423;SDS011;59240;51.370;-0.486;2022-09-12T15:15:35;4.93;;;1.77;;
71423;SDS011;59240;51.370;-0.486;2022-09-12T15:18:03;3.70;;;1.70;;
71423;SDS011;59240;51.370;-0.486;2022-09-12T15:20:32;2.92;;;1.88;;
71423;SDS011;59240;51.370;-0.486;2022-09-12T15:23:01;5.20;;;1.70;;
71423;SDS011;59240;51.370;-0.486;2022-09-12T15:25:27;4.22;;;1.40;;
71423;SDS011;59240;51.370;-0.486;2022-09-12T15:27:54;2.53;;;1.33;;
71423;SDS011;59240;51.370;-0.486;2022-09-12T15:30:21;2.60;;;1.30;;
71423;SDS011;59240;51.370;-0.486;2022-09-12T15:32:48;4.32;;;1.42;;
71423;SDS011;59240;51.370;-0.486;2022-09-12T15:35:21;2.33;;;1.40;;
71423;SDS011;59240;51.370;-0.486;2022-09-12T15:37:49;4.95;;;1.65;;
71423;SDS011;59240;51.370;-0.486;2022-09-12T15:40:16;4.78;;;1.67;;
71423;SDS011;59240;51.370;-0.486;2022-09-12T15:42:43;3.42;;;1.30;;
71423;SDS011;59240;51.370;-0.486;2022-09-12T15:47:42;4.45;;;1.25;;
71423;SDS011;59240;51.370;-0.486;2022-09-12T15:50:09;3.75;;;1.58;;
71423;SDS011;59240;51.370;-0.486;2022-09-12T15:52:36;4.07;;;1.50;;
71423;SDS011;59240;51.370;-0.486;2022-09-12T15:55:04;2.10;;;1.10;;
71423;SDS011;59240;51.370;-0.486;2022-09-12T15:57:35;3.13;;;1.30;;
71423;SDS011;59240;51.370;-0.486;2022-09-12T16:00:01;4.25;;;1.35;;
71423;SDS011;59240;51.370;-0.486;2022-09-12T16:02:30;5.15;;;1.20;;
71423;SDS011;59240;51.370;-0.486;2022-09-12T16:04:57;3.45;;;1.33;;
71423;SDS011;59240;51.370;-0.486;2022-09-12T16:07:23;6.95;;;1.20;;
71423;SDS011;59240;51.370;-0.486;2022-09-12T16:09:50;2.38;;;1.20;;
71423;SDS011;59240;51.370;-0.486;2022-09-12T16:12:16;1.77;;;1.08;;
71423;SDS011;59240;51.370;-0.486;2022-09-12T16:14:43;3.83;;;1.20;;
71423;SDS011;59240;51.370;-0.486;2022-09-12T16:17:09;2.33;;;1.10;;
71423;SDS011;59240;51.370;-0.486;2022-09-12T16:19:36;3.42;;;1.30;;
71423;SDS011;59240;51.370;-0.486;2022-09-12T16:22:03;5.57;;;1.42;;
71423;SDS011;59240;51.370;-0.486;2022-09-12T16:24:29;5.20;;;1.30;;
71423;SDS011;59240;51.370;-0.486;2022-09-12T16:26:56;4.07;;;1.40;;
71423;SDS011;59240;51.370;-0.486;2022-09-12T16:29:26;2.85;;;1.08;;
71423;SDS011;59240;51.370;-0.486;2022-09-12T16:31:52;3.40;;;1.10;;
71423;SDS011;59240;51.370;-0.486;2022-09-12T16:34:19;4.30;;;1.30;;
71423;SDS011;59240;51.370;-0.486;2022-09-12T16:36:45;2.97;;;1.48;;
71423;SDS011;59240;51.370;-0.486;2022-09-12T16:39:12;4.95;;;1.65;;
71423;SDS011;59240;51.370;-0.486;2022-09-12T16:41:39;2.92;;;1.50;;
71423;SDS011;59240;51.370;-0.486;2022-09-12T16:44:07;2.92;;;1.50;;
71423;SDS011;59240;51.370;-0.486;2022-09-12T16:46:35;5.07;;;2.92;;
71423;SDS011;59240;51.370;-0.486;2022-09-12T16:49:03;6.70;;;2.60;;
71423;SDS011;59240;51.370;-0.486;2022-09-12T16:51:31;3.40;;;1.83;;
71423;SDS011;59240;51.370;-0.486;2022-09-12T16:54:00;4.20;;;1.48;;
71423;SDS011;59240;51.370;-0.486;2022-09-12T16:56:27;3.33;;;1.40;;
71423;SDS011;59240;51.370;-0.486;2022-09-12T16:58:54;5.90;;;1.50;;
71423;SDS011;59240;51.370;-0.486;2022-09-12T17:01:21;6.07;;;1.58;;
71423;SDS011;59240;51.370;-0.486;2022-09-12T17:03:54;4.65;;;1.65;;
71423;SDS011;59240;51.370;-0.486;2022-09-12T17:06:22;4.43;;;1.55;;
71423;SDS011;59240;51.370;-0.486;2022-09-12T17:08:50;6.68;;;1.65;;
71423;SDS011;59240;51.370;-0.486;2022-09-12T17:11:35;2.92;;;1.65;;
71423;SDS011;59240;51.370;-0.486;2022-09-12T17:14:04;9.25;;;1.77;;
71423;SDS011;59240;51.370;-0.486;2022-09-12T17:16:37;3.92;;;1.55;;
71423;SDS011;59240;51.370;-0.486;2022-09-12T17:19:23;4.18;;;1.50;;
71423;SDS011;59240;51.370;-0.486;2022-09-12T17:21:51;4.13;;;1.50;;
71423;SDS011;59240;51.370;-0.486;2022-09-12T17:24:19;8.30;;;1.70;;
71423;SDS011;59240;51.370;-0.486;2022-09-12T17:26:46;4.75;;;1.85;;
71423;SDS011;59240;51.370;-0.486;2022-09-12T17:29:13;3.55;;;1.60;;
71423;SDS011;59240;51.370;-0.486;2022-09-12T17:31:40;3.20;;;1.40;;